createdAt,value
2022-11-02T00:00:45.846Z,99476.47
2022-11-02T00:03:14.561Z,99467.22
2022-11-02T00:05:44.343Z,99472.41
2022-11-02T00:08:13.679Z,99468.53
2022-11-02T00:10:44.382Z,99463.19
2022-11-02T00:13:13.193Z,99461.50
2022-11-02T00:15:41.692Z,99465.50
2022-11-02T00:18:14.202Z,99465.75
2022-11-02T00:20:44.592Z,99471.31
2022-11-02T00:23:14.211Z,99469.84
2022-11-02T00:25:47.315Z,99476.00
2022-11-02T00:28:16.308Z,99471.81
2022-11-02T00:30:46.405Z,99474.81
2022-11-02T00:33:15.183Z,99463.88
2022-11-02T00:35:45.467Z,99472.66
2022-11-02T00:38:14.025Z,99474.38
2022-11-02T00:40:45.048Z,99476.47
2022-11-02T00:43:14.566Z,99465.06
2022-11-02T00:45:42.841Z,99467.81
2022-11-02T00:48:11.720Z,99462.84
2022-11-02T00:50:42.767Z,99464.03
2022-11-02T00:53:11.195Z,99457.03
2022-11-02T00:55:39.844Z,99458.41
2022-11-02T00:58:12.167Z,99450.75
2022-11-02T01:00:40.872Z,99444.09
2022-11-02T01:03:12.029Z,99455.06
2022-11-02T01:05:40.458Z,99457.22
2022-11-02T01:08:10.172Z,99457.91
2022-11-02T01:10:40.633Z,99451.59
2022-11-02T01:13:14.312Z,99449.22
2022-11-02T01:15:45.460Z,99442.47
2022-11-02T01:18:15.454Z,99440.50
2022-11-02T01:20:43.757Z,99441.88
2022-11-02T01:23:12.242Z,99442.28
2022-11-02T01:25:46.090Z,99432.31
2022-11-02T01:28:15.744Z,99436.66
2022-11-02T01:30:46.784Z,99437.69
2022-11-02T01:33:16.182Z,99432.91
2022-11-02T01:35:46.202Z,99430.44
2022-11-02T01:38:17.374Z,99444.41
2022-11-02T01:40:45.879Z,99433.34
2022-11-02T01:43:23.683Z,99428.22
2022-11-02T01:45:55.453Z,99421.81
2022-11-02T01:48:29.871Z,99427.94
2022-11-02T01:50:59.134Z,99437.91
2022-11-02T01:53:27.304Z,99430.69
2022-11-02T01:55:56.094Z,99431.09
2022-11-02T01:58:26.497Z,99419.66
2022-11-02T02:00:56.759Z,99415.81
2022-11-02T02:03:26.048Z,99418.88
2022-11-02T02:05:59.470Z,99405.97
2022-11-02T02:08:29.910Z,99401.47
2022-11-02T02:10:59.649Z,99402.22
2022-11-02T02:13:30.862Z,99403.31
2022-11-02T02:16:17.340Z,99394.09
2022-11-02T02:18:50.795Z,99402.44
2022-11-02T02:21:37.448Z,99389.88
2022-11-02T02:24:22.518Z,99384.47
2022-11-02T02:27:13.862Z,99386.16
2022-11-02T02:30:04.882Z,99381.53
2022-11-02T02:32:46.875Z,99386.25
2022-11-02T02:35:29.936Z,99385.63
2022-11-02T02:38:02.897Z,99387.03
2022-11-02T02:40:35.800Z,99376.03
2022-11-02T02:43:09.982Z,99376.22
2022-11-02T02:45:46.985Z,99388.78
2022-11-02T02:48:19.702Z,99382.81
2022-11-02T02:50:52.899Z,99389.19
2022-11-02T02:53:29.350Z,99394.69
2022-11-02T02:56:04.251Z,99387.41
2022-11-02T02:58:43.074Z,99391.09
2022-11-02T03:01:16.965Z,99411.66
2022-11-02T03:03:48.840Z,99411.75
2022-11-02T03:06:21.897Z,99408.16
2022-11-02T03:08:58.508Z,99416.41
2022-11-02T03:11:26.976Z,99407.44
2022-11-02T03:14:23.404Z,99412.06
2022-11-02T03:17:06.464Z,99400.97
2022-11-02T03:19:44.500Z,99403.94
2022-11-02T03:22:23.021Z,99400.88
2022-11-02T03:25:00.407Z,99411.78
2022-11-02T03:27:38.947Z,99410.56
2022-11-02T03:30:13.837Z,99414.66
2022-11-02T03:32:54.068Z,99410.00
2022-11-02T03:35:30.591Z,99406.06
2022-11-02T03:38:03.752Z,99404.25
2022-11-02T03:40:36.839Z,99412.81
2022-11-02T03:43:07.356Z,99417.34
2022-11-02T03:45:40.662Z,99417.25
2022-11-02T03:48:12.899Z,99411.66
2022-11-02T03:50:47.241Z,99417.25
2022-11-02T03:53:20.658Z,99416.97
2022-11-02T03:55:55.273Z,99416.72
2022-11-02T03:58:23.769Z,99426.16
2022-11-02T04:00:59.094Z,99428.25
2022-11-02T04:03:30.114Z,99427.78
2022-11-02T04:05:58.548Z,99437.53
2022-11-02T04:08:33.378Z,99429.03
2022-11-02T04:11:18.593Z,99436.59
2022-11-02T04:14:04.716Z,99434.63
2022-11-02T04:16:33.187Z,99427.69
2022-11-02T04:19:20.727Z,99435.19
2022-11-02T04:22:05.707Z,99442.47
2022-11-02T04:24:52.886Z,99434.72
2022-11-02T04:27:22.155Z,99435.84
2022-11-02T04:29:51.152Z,99431.59
2022-11-02T04:32:35.583Z,99440.00
2022-11-02T04:35:08.807Z,99439.91
2022-11-02T04:37:58.020Z,99425.72
2022-11-02T04:40:26.649Z,99422.56
2022-11-02T04:42:55.802Z,99427.88
2022-11-02T04:45:24.689Z,99434.31
2022-11-02T04:47:53.089Z,99441.53
2022-11-02T04:50:23.163Z,99450.69
2022-11-02T04:52:57.751Z,99458.38
2022-11-02T04:55:26.255Z,99454.75
2022-11-02T04:57:54.915Z,99458.44
2022-11-02T05:00:23.845Z,99462.69
2022-11-02T05:02:52.925Z,99464.03
2022-11-02T05:05:22.579Z,99464.41
2022-11-02T05:07:51.057Z,99463.84
2022-11-02T05:10:20.133Z,99457.50
2022-11-02T05:12:48.502Z,99458.91
2022-11-02T05:15:16.689Z,99465.16
2022-11-02T05:17:45.220Z,99476.28
2022-11-02T05:20:13.775Z,99476.72
2022-11-02T05:22:44.921Z,99476.09
2022-11-02T05:25:14.117Z,99475.88
2022-11-02T05:27:43.494Z,99475.66
2022-11-02T05:30:13.783Z,99481.09
2022-11-02T05:32:42.171Z,99480.22
2022-11-02T05:35:10.834Z,99496.22
2022-11-02T05:37:38.922Z,99495.44
2022-11-02T05:40:11.080Z,99500.38
2022-11-02T05:42:39.411Z,99505.19
2022-11-02T05:45:08.793Z,99515.16
2022-11-02T05:47:38.640Z,99525.72
2022-11-02T05:50:08.501Z,99526.53
2022-11-02T05:52:37.448Z,99528.13
2022-11-02T05:55:06.851Z,99532.91
2022-11-02T05:57:37.780Z,99535.91
2022-11-02T06:00:07.888Z,99538.38
2022-11-02T06:02:37.374Z,99544.91
2022-11-02T06:05:06.450Z,99558.91
2022-11-02T06:07:37.138Z,99554.56
2022-11-02T06:10:07.837Z,99564.94
2022-11-02T06:12:37.669Z,99553.78
2022-11-02T06:15:06.708Z,99567.50
2022-11-02T06:17:41.235Z,99558.13
2022-11-02T06:20:10.875Z,99566.94
2022-11-02T06:22:42.500Z,99565.56
2022-11-02T06:25:11.892Z,99570.69
2022-11-02T06:27:45.844Z,99572.56
2022-11-02T06:30:14.965Z,99566.47
2022-11-02T06:32:48.696Z,99577.09
2022-11-02T06:35:18.932Z,99582.16
2022-11-02T06:37:50.023Z,99578.09
2022-11-02T06:40:21.370Z,99584.28
2022-11-02T06:43:15.494Z,99587.00
2022-11-02T06:45:53.543Z,99592.03
2022-11-02T06:48:21.778Z,99591.09
2022-11-02T06:50:50.277Z,99598.81
2022-11-02T06:53:20.316Z,99593.16
2022-11-02T06:55:53.394Z,99598.34
2022-11-02T06:58:24.736Z,99595.88
2022-11-02T07:00:59.004Z,99606.84
2022-11-02T07:03:28.760Z,99601.81
2022-11-02T07:05:59.626Z,99613.38
2022-11-02T07:08:29.963Z,99612.31
2022-11-02T07:10:58.939Z,99613.72
2022-11-02T07:13:29.899Z,99621.84
2022-11-02T07:15:58.869Z,99624.72
2022-11-02T07:18:27.577Z,99623.09
2022-11-02T07:20:55.908Z,99628.28
2022-11-02T07:23:24.427Z,99635.56
2022-11-02T07:25:53.199Z,99635.47
2022-11-02T07:28:22.025Z,99640.28
2022-11-02T07:30:55.346Z,99640.94
2022-11-02T07:33:24.512Z,99638.94
2022-11-02T07:35:52.871Z,99645.66
2022-11-02T07:38:21.095Z,99645.44
2022-11-02T07:40:51.279Z,99642.22
2022-11-02T07:43:19.715Z,99637.94
2022-11-02T07:45:48.032Z,99648.53
2022-11-02T07:48:19.296Z,99650.88
2022-11-02T07:50:47.621Z,99653.03
2022-11-02T07:53:15.735Z,99654.72
2022-11-02T07:55:44.294Z,99654.63
2022-11-02T07:58:15.492Z,99652.53
2022-11-02T08:00:55.939Z,99650.03
2022-11-02T08:03:30.293Z,99657.22
2022-11-02T08:06:03.026Z,99647.13
2022-11-02T08:08:32.372Z,99642.38
2022-11-02T08:11:07.141Z,99639.88
2022-11-02T08:13:36.647Z,99640.28
2022-11-02T08:16:09.795Z,99639.44
2022-11-02T08:18:41.410Z,99640.34
2022-11-02T08:21:09.648Z,99644.03
2022-11-02T08:23:38.237Z,99640.88
2022-11-02T08:26:06.584Z,99648.00
2022-11-02T08:28:36.795Z,99639.00
2022-11-02T08:31:05.571Z,99637.47
2022-11-02T08:33:35.066Z,99644.59
2022-11-02T08:36:06.074Z,99642.31
2022-11-02T08:38:34.674Z,99639.56
2022-11-02T08:41:03.062Z,99644.72
2022-11-02T08:43:33.366Z,99633.41
2022-11-02T08:46:18.441Z,99633.84
2022-11-02T08:48:47.054Z,99631.28
2022-11-02T08:51:19.279Z,99627.59
2022-11-02T08:53:51.624Z,99622.91
2022-11-02T08:56:21.053Z,99619.63
2022-11-02T08:58:49.471Z,99622.66
2022-11-02T09:01:18.130Z,99629.06
2022-11-02T09:03:47.168Z,99627.78
2022-11-02T09:06:17.019Z,99625.50
2022-11-02T09:08:45.656Z,99630.44
2022-11-02T09:11:14.148Z,99635.78
2022-11-02T09:13:42.724Z,99633.81
2022-11-02T09:16:10.973Z,99621.13
2022-11-02T09:18:39.538Z,99632.84
2022-11-02T09:21:08.603Z,99627.16
2022-11-02T09:23:38.927Z,99646.50
2022-11-02T09:26:07.529Z,99634.00
2022-11-02T09:28:35.953Z,99641.56
2022-11-02T09:31:07.485Z,99654.47
2022-11-02T09:33:38.844Z,99651.81
2022-11-02T09:36:07.955Z,99649.06
2022-11-02T09:38:38.342Z,99651.81
2022-11-02T09:41:14.200Z,99650.75
2022-11-02T09:44:01.558Z,99644.50
2022-11-02T09:46:33.388Z,99655.00
2022-11-02T09:49:07.222Z,99640.31
2022-11-02T09:51:38.630Z,99658.97
2022-11-02T09:54:25.583Z,99656.72
2022-11-02T09:57:00.155Z,99675.25
2022-11-02T09:59:29.058Z,99666.00
2022-11-02T10:02:05.523Z,99694.00
2022-11-02T10:05:05.125Z,99682.28
2022-11-02T10:08:01.929Z,99675.41
2022-11-02T10:10:51.700Z,99674.75
2022-11-02T10:13:32.328Z,99668.47
2022-11-02T10:16:07.193Z,99687.91
2022-11-02T10:18:37.770Z,99683.59
2022-11-02T10:21:09.887Z,99691.78
2022-11-02T10:23:42.444Z,99685.06
2022-11-02T10:26:19.292Z,99681.19
2022-11-02T10:28:50.473Z,99689.06
2022-11-02T10:31:26.911Z,99696.34
2022-11-02T10:33:58.120Z,99694.75
2022-11-02T10:36:42.480Z,99696.44
2022-11-02T10:39:23.634Z,99696.03
2022-11-02T10:42:31.069Z,99696.16
2022-11-02T10:45:20.102Z,99689.31
2022-11-02T10:48:04.868Z,99695.28
2022-11-02T10:50:46.186Z,99696.66
2022-11-02T10:53:40.980Z,99697.59
2022-11-02T10:56:17.706Z,99703.59
2022-11-02T10:58:57.586Z,99707.06
2022-11-02T11:01:28.366Z,99704.88
2022-11-02T11:03:59.712Z,99714.16
2022-11-02T11:06:32.623Z,99702.81
2022-11-02T11:09:04.892Z,99697.38
2022-11-02T11:11:37.847Z,99703.16
2022-11-02T11:20:08.882Z,99695.31
2022-11-02T11:22:38.727Z,99700.72
2022-11-02T11:25:27.586Z,99694.03
2022-11-02T11:27:58.001Z,99707.72
2022-11-02T11:33:23.404Z,99698.78
2022-11-02T11:35:52.997Z,99672.47
2022-11-02T11:38:24.398Z,99670.09
2022-11-02T11:40:56.267Z,99675.00
2022-11-02T11:43:27.621Z,99668.13
2022-11-02T11:46:05.227Z,99659.69
2022-11-02T11:48:39.961Z,99679.47
2022-11-02T11:51:29.983Z,99669.16
2022-11-02T11:54:21.219Z,99676.19
2022-11-02T11:56:51.097Z,99677.91
2022-11-02T11:59:29.391Z,99672.44
2022-11-02T12:02:01.336Z,99676.91
2022-11-02T12:04:31.986Z,99675.00
2022-11-02T12:07:21.851Z,99680.41
2022-11-02T12:10:03.298Z,99665.56
2022-11-02T12:12:43.167Z,99666.03
2022-11-02T12:15:27.214Z,99664.09
2022-11-02T12:18:16.152Z,99663.34
2022-11-02T12:20:54.795Z,99665.88
2022-11-02T12:23:57.508Z,99665.97
2022-11-02T12:26:38.198Z,99672.75
2022-11-02T12:29:21.012Z,99659.03
2022-11-02T12:32:01.087Z,99655.00
2022-11-02T12:35:02.756Z,99654.09
2022-11-02T12:37:56.267Z,99661.06
2022-11-02T12:40:31.537Z,99669.09
2022-11-02T12:43:13.148Z,99669.06
2022-11-02T12:45:48.934Z,99664.25
2022-11-02T12:48:27.279Z,99660.13
2022-11-02T12:51:03.982Z,99658.13
2022-11-02T12:53:44.587Z,99666.84
2022-11-02T12:56:19.551Z,99669.59
2022-11-02T12:58:47.898Z,99675.81
2022-11-02T13:01:23.511Z,99667.72
2022-11-02T13:03:59.533Z,99659.56
2022-11-02T13:06:35.815Z,99667.63
2022-11-02T13:09:09.341Z,99646.28
2022-11-02T13:11:41.137Z,99666.28
2022-11-02T13:14:15.715Z,99675.28
2022-11-02T13:16:50.607Z,99664.06
2022-11-02T13:19:23.738Z,99654.41
2022-11-02T13:21:57.973Z,99652.03
2022-11-02T13:24:32.245Z,99669.44
2022-11-02T13:29:58.613Z,99661.56
2022-11-02T13:32:34.019Z,99636.56
2022-11-02T13:35:08.154Z,99652.06
2022-11-02T13:37:42.549Z,99652.19
2022-11-02T13:40:17.935Z,99648.75
2022-11-02T13:43:06.968Z,99652.44
2022-11-02T13:46:04.099Z,99644.00
2022-11-02T13:48:52.693Z,99639.53
2022-11-02T13:51:30.206Z,99646.34
2022-11-02T13:54:07.375Z,99644.03
2022-11-02T13:56:38.820Z,99651.75
2022-11-02T13:59:09.571Z,99654.78
2022-11-02T14:01:42.751Z,99654.19
2022-11-02T14:04:12.883Z,99645.97
2022-11-02T14:06:48.912Z,99645.09
2022-11-02T14:09:39.010Z,99641.31
2022-11-02T14:12:29.476Z,99639.22
2022-11-02T14:15:42.429Z,99651.13
2022-11-02T14:18:32.864Z,99650.94
2022-11-02T14:21:21.701Z,99650.56
2022-11-02T14:23:49.835Z,99643.00
2022-11-02T14:26:57.165Z,99650.72
2022-11-02T14:29:40.964Z,99640.47
2022-11-02T14:32:16.263Z,99652.06
2022-11-02T14:35:05.835Z,99655.75
2022-11-02T14:38:01.875Z,99646.47
2022-11-02T14:40:35.804Z,99652.06
2022-11-02T14:43:41.231Z,99658.72
2022-11-02T14:46:21.739Z,99653.50
2022-11-02T14:48:53.822Z,99655.22
2022-11-02T14:51:26.755Z,99654.84
2022-11-02T14:54:00.224Z,99650.97
2022-11-02T14:56:50.675Z,99646.44
2022-11-02T14:59:26.784Z,99649.69
2022-11-02T15:01:58.705Z,99651.78
2022-11-02T15:04:28.336Z,99639.94
2022-11-02T15:07:00.197Z,99653.66
2022-11-02T15:09:55.700Z,99648.56
2022-11-02T15:12:33.863Z,99644.91
2022-11-02T15:15:30.825Z,99648.28
2022-11-02T15:18:33.226Z,99637.88
2022-11-02T15:21:23.906Z,99639.06
2022-11-02T15:24:17.713Z,99645.63
2022-11-02T15:26:52.165Z,99643.59
2022-11-02T15:29:34.616Z,99637.84
2022-11-02T15:32:07.766Z,99643.78
2022-11-02T15:34:40.831Z,99643.44
2022-11-02T15:37:10.782Z,99647.41
2022-11-02T15:39:39.559Z,99637.38
2022-11-02T15:42:17.658Z,99639.75
2022-11-02T15:45:51.655Z,99634.00
2022-11-02T15:48:40.284Z,99637.16
2022-11-02T15:51:18.582Z,99626.28
2022-11-02T15:54:13.143Z,99625.63
2022-11-02T15:56:51.586Z,99627.13
2022-11-02T15:59:43.012Z,99629.38
2022-11-02T16:02:23.841Z,99628.34
2022-11-02T16:04:57.099Z,99619.72
2022-11-02T16:07:38.108Z,99618.91
2022-11-02T16:10:23.074Z,99618.13
2022-11-02T16:12:59.026Z,99605.00
2022-11-02T16:15:28.797Z,99614.25
2022-11-02T16:17:58.504Z,99604.00
2022-11-02T16:20:30.364Z,99605.81
2022-11-02T16:23:01.616Z,99611.41
2022-11-02T16:25:39.501Z,99607.06
2022-11-02T16:28:17.502Z,99610.69
2022-11-02T16:30:59.010Z,99606.16
2022-11-02T16:33:30.024Z,99611.56
2022-11-02T16:36:01.661Z,99623.06
2022-11-02T16:38:30.251Z,99622.44
2022-11-02T16:40:59.955Z,99626.16
2022-11-02T16:43:29.089Z,99620.72
2022-11-02T16:46:04.366Z,99617.41
2022-11-02T16:48:35.061Z,99618.34
2022-11-02T16:51:19.444Z,99623.41
2022-11-02T16:53:48.194Z,99616.16
2022-11-02T16:56:28.938Z,99625.59
2022-11-02T16:59:01.978Z,99615.41
2022-11-02T17:01:39.302Z,99611.22
2022-11-02T17:04:24.517Z,99617.91
2022-11-02T17:06:57.456Z,99624.31
2022-11-02T17:09:29.228Z,99617.13
2022-11-02T17:12:01.395Z,99613.16
2022-11-02T17:14:30.397Z,99615.34
2022-11-02T17:17:02.665Z,99617.94
2022-11-02T17:19:48.191Z,99614.94
2022-11-02T17:22:25.512Z,99622.97
2022-11-02T17:25:14.116Z,99621.63
2022-11-02T17:27:42.792Z,99622.66
2022-11-02T17:30:44.820Z,99624.63
2022-11-02T17:33:28.096Z,99618.34
2022-11-02T17:35:59.063Z,99625.31
2022-11-02T17:38:29.076Z,99617.50
2022-11-02T17:40:57.639Z,99622.75
2022-11-02T17:43:25.930Z,99620.84
2022-11-02T17:45:58.612Z,99631.47
2022-11-02T17:48:29.197Z,99629.34
2022-11-02T17:50:59.945Z,99631.69
2022-11-02T17:53:30.625Z,99630.94
2022-11-02T17:55:59.066Z,99627.59
2022-11-02T17:58:27.528Z,99629.69
2022-11-02T18:00:56.434Z,99629.13
2022-11-02T18:03:31.200Z,99629.31
2022-11-02T18:06:00.891Z,99629.22
2022-11-02T18:08:30.767Z,99624.97
2022-11-02T18:10:58.815Z,99621.09
2022-11-02T18:13:27.139Z,99623.22
2022-11-02T18:15:55.703Z,99611.59
2022-11-02T18:18:23.786Z,99615.00
2022-11-02T18:20:52.190Z,99627.16
2022-11-02T18:23:22.071Z,99624.59
2022-11-02T18:25:55.216Z,99618.91
2022-11-02T18:28:26.770Z,99621.16
2022-11-02T18:30:55.008Z,99623.00
2022-11-02T18:33:23.088Z,99619.38
2022-11-02T18:35:51.682Z,99622.50
2022-11-02T18:38:20.171Z,99618.13
2022-11-02T18:40:48.229Z,99621.63
2022-11-02T18:43:18.001Z,99611.91
2022-11-02T18:45:46.571Z,99617.84
2022-11-02T18:48:14.695Z,99609.78
2022-11-02T18:50:43.152Z,99613.72
2022-11-02T18:53:12.875Z,99612.84
2022-11-02T18:55:41.035Z,99613.53
2022-11-02T18:58:11.659Z,99613.38
2022-11-02T19:00:41.752Z,99618.56
2022-11-02T19:03:11.900Z,99615.94
2022-11-02T19:08:48.105Z,99612.69
2022-11-02T19:11:19.337Z,99615.56
2022-11-02T19:13:47.566Z,99612.34
2022-11-02T19:16:17.407Z,99609.06
2022-11-02T19:18:45.892Z,99607.06
2022-11-02T19:21:14.345Z,99605.25
2022-11-02T19:23:44.044Z,99601.03
2022-11-02T19:26:12.408Z,99600.03
2022-11-02T19:28:40.880Z,99598.44
2022-11-02T19:31:09.631Z,99607.81
2022-11-02T19:33:40.302Z,99604.72
2022-11-02T19:36:09.315Z,99600.25
2022-11-02T19:38:38.521Z,99591.44
2022-11-02T19:41:10.799Z,99592.22
2022-11-02T19:43:40.375Z,99598.47
2022-11-02T19:46:11.361Z,99593.38
2022-11-02T19:48:41.177Z,99589.22
2022-11-02T19:51:13.347Z,99602.53
2022-11-02T19:53:46.068Z,99588.34
2022-11-02T19:56:16.207Z,99587.00
2022-11-02T19:58:46.221Z,99583.59
2022-11-02T20:01:16.766Z,99572.28
2022-11-02T20:03:47.798Z,99571.53
2022-11-02T20:06:20.278Z,99568.44
2022-11-02T20:08:50.903Z,99569.88
2022-11-02T20:11:20.205Z,99573.19
2022-11-02T20:13:49.810Z,99573.38
2022-11-02T20:16:20.301Z,99574.22
2022-11-02T20:18:51.628Z,99565.34
2022-11-02T20:21:21.279Z,99562.63
2022-11-02T20:23:52.060Z,99577.88
2022-11-02T20:26:24.454Z,99582.44
2022-11-02T20:28:54.052Z,99588.38
2022-11-02T20:31:24.337Z,99581.59
2022-11-02T20:33:55.123Z,99583.38
2022-11-02T20:36:23.476Z,99583.34
2022-11-02T20:38:53.111Z,99578.06
2022-11-02T20:41:23.964Z,99588.78
2022-11-02T20:43:55.347Z,99583.06
2022-11-02T20:46:42.248Z,99594.69
2022-11-02T20:49:21.960Z,99588.06
2022-11-02T20:52:03.602Z,99579.00
2022-11-02T20:54:32.095Z,99573.22
2022-11-02T20:57:00.549Z,99577.13
2022-11-02T20:59:29.203Z,99575.13
2022-11-02T21:01:58.012Z,99572.00
2022-11-02T21:04:28.229Z,99567.41
2022-11-02T21:06:57.054Z,99568.91
2022-11-02T21:09:25.497Z,99576.28
2022-11-02T21:12:11.371Z,99561.38
2022-11-02T21:14:40.099Z,99563.84
2022-11-02T21:17:08.682Z,99555.59
2022-11-02T21:19:38.868Z,99553.91
2022-11-02T21:22:07.992Z,99551.56
2022-11-02T21:24:36.414Z,99557.41
2022-11-02T21:27:07.177Z,99556.91
2022-11-02T21:29:36.504Z,99551.94
2022-11-02T21:32:05.779Z,99556.53
2022-11-02T21:34:35.522Z,99555.41
2022-11-02T21:37:07.203Z,99549.94
2022-11-02T21:39:36.396Z,99552.03
2022-11-02T21:42:05.906Z,99549.22
2022-11-02T21:44:35.285Z,99545.50
2022-11-02T21:47:03.762Z,99544.22
2022-11-02T21:49:32.326Z,99538.16
2022-11-02T21:52:01.115Z,99545.03
2022-11-02T21:54:31.796Z,99545.81
2022-11-02T21:57:00.296Z,99538.34
2022-11-02T21:59:29.218Z,99533.88
2022-11-02T22:01:56.438Z,99533.22
2022-11-02T22:04:28.770Z,99527.88
2022-11-02T22:06:57.779Z,99535.88
2022-11-02T22:09:29.761Z,99535.09
2022-11-02T22:12:17.912Z,99533.28
2022-11-02T22:14:46.561Z,99531.09
2022-11-02T22:17:43.304Z,99527.69
2022-11-02T22:20:04.504Z,99534.06
2022-11-02T22:22:33.159Z,99534.28
2022-11-02T22:25:01.516Z,99531.19
2022-11-02T22:27:31.914Z,99528.63
2022-11-02T22:30:00.230Z,99530.38
2022-11-02T22:32:28.422Z,99522.31
2022-11-02T22:34:57.082Z,99519.53
2022-11-02T22:37:43.115Z,99504.91
2022-11-02T22:40:12.330Z,99511.28
2022-11-02T22:42:42.720Z,99511.00
2022-11-02T22:45:12.156Z,99502.22
2022-11-02T22:47:41.382Z,99506.06
2022-11-02T22:50:10.094Z,99498.91
2022-11-02T22:52:38.427Z,99497.28
2022-11-02T22:55:08.683Z,99493.16
2022-11-02T22:57:36.862Z,99487.72
2022-11-02T23:00:08.444Z,99488.59
2022-11-02T23:02:36.842Z,99486.16
2022-11-02T23:05:08.205Z,99490.13
2022-11-02T23:07:37.859Z,99491.34
2022-11-02T23:10:27.062Z,99487.25
2022-11-02T23:12:54.375Z,99483.59
2022-11-02T23:15:24.022Z,99477.16
2022-11-02T23:17:52.449Z,99477.31
2022-11-02T23:20:19.476Z,99464.97
2022-11-02T23:23:05.292Z,99469.00
2022-11-02T23:25:33.611Z,99462.03
2022-11-02T23:28:18.938Z,99467.41
2022-11-02T23:31:06.074Z,99464.44
2022-11-02T23:33:36.468Z,99461.19
2022-11-02T23:36:11.556Z,99459.19
2022-11-02T23:38:59.221Z,99446.56
2022-11-02T23:41:28.861Z,99442.72
2022-11-02T23:44:12.744Z,99451.06
2022-11-02T23:46:46.163Z,99449.06
2022-11-02T23:49:15.370Z,99447.06
2022-11-02T23:52:01.434Z,99444.44
2022-11-02T23:54:47.086Z,99447.44
2022-11-02T23:57:15.351Z,99453.66
2022-11-02T23:59:43.723Z,99446.22
